Time;durP1;ratioP1;P1;durP2;ratioP2;P2;SDS_P1;SDS_P2;PMS_P1;PMS_P2;Temp;Humidity;BMP_temperature;BMP_pressure;BME280_temperature;BME280_humidity;BME280_pressure;Samples;Min_cycle;Max_cycle;Signal;HPM_P1;HPM_P2
2022/06/24 00:01:59;;;;;;;9.23;7.90;;;15.90;99.90;;;;;;4962547;28;20050;-67
2022/06/24 00:04:29;;;;;;;8.75;7.90;;;15.90;99.90;;;;;;4963869;28;20050;-68
2022/06/24 00:06:57;;;;;;;11.25;7.70;;;15.90;99.90;;;;;;4967027;28;20049;-67
2022/06/24 00:09:29;;;;;;;10.32;8.15;;;15.90;99.90;;;;;;4965414;28;20054;-72
2022/06/24 00:12:04;;;;;;;17.15;8.15;;;15.90;99.90;;;;;;4958152;28;20441;-67
2022/06/24 00:14:31;;;;;;;9.88;8.93;;;15.90;99.90;;;;;;4963097;28;20597;-67
2022/06/24 00:17:01;;;;;;;9.55;7.57;;;15.80;99.90;;;;;;4967809;28;20225;-67
2022/06/24 00:19:30;;;;;;;;;;;15.80;99.90;;;;;;4964940;28;20521;-73
2022/06/24 00:22:05;;;;;;;8.45;7.63;;;15.80;99.90;;;;;;4948039;28;19926;-67
2022/06/24 00:24:33;;;;;;;9.50;7.40;;;15.80;99.90;;;;;;4966609;28;20142;-69
2022/06/24 00:27:00;;;;;;;10.70;8.00;;;15.80;99.90;;;;;;4963319;28;20134;-68
2022/06/24 00:29:30;;;;;;;9.50;7.25;;;15.80;99.90;;;;;;4963998;28;20130;-67
2022/06/24 00:32:00;;;;;;;9.83;8.83;;;15.70;99.90;;;;;;4962867;28;20214;-67
2022/06/24 00:34:27;;;;;;;8.27;7.47;;;15.70;99.90;;;;;;4963029;28;20114;-67
2022/06/24 00:36:55;;;;;;;8.70;7.78;;;15.70;99.90;;;;;;4962463;28;20146;-67
2022/06/24 00:39:35;;;;;;;9.88;7.72;;;15.80;99.90;;;;;;4965604;28;20043;-70
2022/06/24 00:42:03;;;;;;;11.82;8.07;;;15.80;99.90;;;;;;4965378;28;20055;-67
2022/06/24 00:44:42;;;;;;;10.20;7.00;;;15.70;99.90;;;;;;4966066;28;20099;-72
2022/06/24 00:47:12;;;;;;;10.27;7.43;;;15.70;99.90;;;;;;4964771;28;20433;-69
2022/06/24 00:49:40;;;;;;;13.25;8.75;;;15.70;99.90;;;;;;4966441;28;20089;-71
2022/06/24 00:52:08;;;;;;;12.15;8.00;;;15.70;99.90;;;;;;4961847;28;20102;-68
2022/06/24 00:54:35;;;;;;;11.10;10.00;;;15.70;99.90;;;;;;4967264;28;20486;-69
2022/06/24 00:57:02;;;;;;;10.30;8.43;;;15.70;99.90;;;;;;4964782;28;20099;-67
2022/06/24 00:59:34;;;;;;;12.90;8.32;;;15.70;99.90;;;;;;4966464;28;20102;-68
2022/06/24 01:02:05;;;;;;;14.18;10.20;;;15.60;99.90;;;;;;4964157;28;20398;-67
2022/06/24 01:04:34;;;;;;;13.10;10.65;;;15.60;99.90;;;;;;4964695;28;20126;-70
2022/06/24 01:07:01;;;;;;;11.63;8.90;;;15.60;99.90;;;;;;4963636;28;20055;-69
2022/06/24 01:09:29;;;;;;;11.52;7.90;;;15.60;99.90;;;;;;4967681;28;20519;-67
2022/06/24 01:11:56;;;;;;;10.48;9.23;;;15.60;99.90;;;;;;4967889;28;20051;-72
2022/06/24 01:14:23;;;;;;;11.85;9.32;;;15.60;99.90;;;;;;4966864;28;20106;-67
2022/06/24 01:16:50;;;;;;;11.85;7.72;;;15.60;99.90;;;;;;4969681;28;20046;-67
2022/06/24 01:19:17;;;;;;;12.15;8.05;;;15.60;99.90;;;;;;4969150;28;20050;-67
2022/06/24 01:21:46;;;;;;;11.07;9.57;;;15.60;99.90;;;;;;4968670;28;20153;-70
2022/06/24 01:24:15;;;;;;;9.93;8.98;;;15.50;99.90;;;;;;4970569;28;20074;-67
2022/06/24 01:26:57;;;;;;;10.40;8.55;;;15.50;99.90;;;;;;4968426;28;20150;-69
2022/06/24 01:29:25;;;;;;;9.25;8.35;;;15.50;99.90;;;;;;4967045;28;20070;-67
2022/06/24 01:31:53;;;;;;;12.02;10.82;;;15.50;99.90;;;;;;4963982;28;20098;-70
2022/06/24 01:34:23;;;;;;;12.18;9.90;;;15.50;99.90;;;;;;4968139;28;20053;-66
2022/06/24 01:36:50;;;;;;;;;;;15.50;99.90;;;;;;4967281;28;20046;-67
2022/06/24 01:39:19;;;;;;;15.70;11.07;;;15.50;99.90;;;;;;4970790;28;20283;-71
2022/06/24 01:41:47;;;;;;;10.05;9.00;;;15.50;99.90;;;;;;4967970;28;20421;-67
2022/06/24 01:44:14;;;;;;;14.95;9.93;;;15.50;99.90;;;;;;4970238;28;20138;-67
2022/06/24 01:46:41;;;;;;;10.00;9.00;;;15.50;99.90;;;;;;4966452;28;20051;-67
2022/06/24 01:49:08;;;;;;;11.35;9.45;;;15.50;99.90;;;;;;4965108;28;20043;-68
2022/06/24 01:51:38;;;;;;;11.98;10.68;;;15.50;99.90;;;;;;4968683;28;20078;-67
2022/06/24 01:54:05;;;;;;;11.75;10.52;;;15.50;99.90;;;;;;4968169;28;20051;-72
2022/06/24 01:56:32;;;;;;;13.43;9.52;;;15.50;99.90;;;;;;4968471;28;20047;-66
2022/06/24 01:58:59;;;;;;;13.77;11.30;;;15.50;99.90;;;;;;4953123;28;20058;-71
2022/06/24 02:01:26;;;;;;;15.27;11.52;;;15.50;99.90;;;;;;4968991;28;20118;-73
2022/06/24 02:03:54;;;;;;;19.20;12.30;;;15.50;99.90;;;;;;4967685;28;20145;-67
2022/06/24 02:06:21;;;;;;;12.90;11.70;;;15.50;99.90;;;;;;4968448;28;20055;-67
2022/06/24 02:08:48;;;;;;;14.90;10.70;;;15.50;99.90;;;;;;4968281;28;20126;-72
2022/06/24 02:14:04;;;;;;;16.65;12.40;;;15.50;99.90;;;;;;4963909;28;20046;-68
2022/06/24 02:16:32;;;;;;;14.68;10.95;;;15.50;99.90;;;;;;4969907;28;20346;-66
2022/06/24 02:19:00;;;;;;;16.70;12.40;;;15.50;99.90;;;;;;4951195;28;20164;-70
2022/06/24 02:21:27;;;;;;;13.48;12.13;;;15.50;99.90;;;;;;4968476;28;20051;-69
2022/06/24 02:23:54;;;;;;;15.15;12.48;;;15.50;99.90;;;;;;4967572;28;21145;-69
2022/06/24 02:26:21;;;;;;;14.00;12.05;;;15.50;99.90;;;;;;4966137;28;20146;-66
2022/06/24 02:28:48;;;;;;;18.05;14.07;;;15.50;99.90;;;;;;4949136;28;20074;-68
2022/06/24 02:31:15;;;;;;;17.38;14.40;;;15.50;99.90;;;;;;4965478;28;20146;-67
2022/06/24 02:33:43;;;;;;;17.73;14.60;;;15.50;99.90;;;;;;4967781;28;20481;-72
2022/06/24 02:36:10;;;;;;;15.30;12.75;;;15.50;99.90;;;;;;4968412;28;20047;-69
2022/06/24 02:38:37;;;;;;;15.35;13.18;;;15.50;99.90;;;;;;4964813;28;20509;-67
2022/06/24 02:41:10;;;;;;;15.70;14.07;;;15.50;99.90;;;;;;4969258;28;20042;-67
2022/06/24 02:43:39;;;;;;;14.38;11.90;;;15.50;99.90;;;;;;4969029;28;20483;-66
2022/06/24 02:46:11;;;;;;;15.00;12.35;;;15.50;99.90;;;;;;4967567;28;20043;-71
2022/06/24 02:48:41;;;;;;;14.95;12.38;;;15.50;99.90;;;;;;4969168;28;20065;-67
2022/06/24 02:51:10;;;;;;;15.75;13.48;;;15.60;99.90;;;;;;4967544;28;20063;-68
2022/06/24 02:53:37;;;;;;;17.27;12.25;;;15.60;99.90;;;;;;4969056;28;20485;-66
2022/06/24 02:56:05;;;;;;;18.88;12.95;;;15.60;99.90;;;;;;4965692;28;20521;-70
2022/06/24 02:58:33;;;;;;;15.93;14.32;;;15.60;99.90;;;;;;4966436;28;20046;-67
2022/06/24 03:01:02;;;;;;;14.88;12.43;;;15.60;99.90;;;;;;4967709;28;20125;-66
2022/06/24 03:03:31;;;;;;;14.07;12.15;;;15.60;99.90;;;;;;4952544;28;20050;-67
2022/06/24 03:05:59;;;;;;;16.38;14.68;;;15.60;99.90;;;;;;4948388;28;20055;-66
2022/06/24 03:08:26;;;;;;;15.80;13.57;;;15.60;99.90;;;;;;4948282;28;20047;-68
2022/06/24 03:10:55;;;;;;;14.65;13.20;;;15.70;99.90;;;;;;4955759;28;20039;-74
2022/06/24 03:13:22;;;;;;;15.52;13.93;;;15.60;99.90;;;;;;4948889;28;20103;-67
2022/06/24 03:15:50;;;;;;;15.73;11.55;;;15.70;99.90;;;;;;4943947;28;20078;-67
2022/06/24 03:18:18;;;;;;;14.30;10.85;;;15.70;99.90;;;;;;4948827;28;20477;-68
2022/06/24 03:20:45;;;;;;;13.52;12.13;;;15.70;99.90;;;;;;4944915;28;20500;-69
2022/06/24 03:23:14;;;;;;;15.68;12.85;;;15.70;99.90;;;;;;4947866;28;20061;-71
2022/06/24 03:25:41;;;;;;;15.32;12.00;;;15.70;99.90;;;;;;4949198;28;20114;-66
2022/06/24 03:28:08;;;;;;;14.85;12.85;;;15.70;99.90;;;;;;4949884;28;20361;-66
2022/06/24 03:30:35;;;;;;;14.40;13.13;;;15.70;99.90;;;;;;4951592;28;20114;-66
2022/06/24 03:33:02;;;;;;;13.15;11.52;;;15.80;99.90;;;;;;4954770;28;20102;-69
2022/06/24 03:35:30;;;;;;;11.18;10.00;;;15.80;99.90;;;;;;4951064;28;20066;-66
2022/06/24 03:37:57;;;;;;;15.98;11.48;;;15.80;99.90;;;;;;4948572;28;20056;-66
2022/06/24 03:40:24;;;;;;;13.85;12.45;;;15.80;99.90;;;;;;4950425;28;20102;-68
2022/06/24 03:42:51;;;;;;;18.70;13.25;;;15.90;99.90;;;;;;4956525;28;20066;-66
2022/06/24 03:45:18;;;;;;;15.05;12.63;;;15.90;99.90;;;;;;4949814;28;20055;-66
2022/06/24 03:47:45;;;;;;;14.70;13.30;;;15.90;99.90;;;;;;4949601;28;20047;-69
2022/06/24 03:50:12;;;;;;;13.05;11.73;;;15.90;99.90;;;;;;4955674;28;20047;-66
2022/06/24 03:52:39;;;;;;;17.05;12.63;;;16.00;99.90;;;;;;4949921;28;20051;-68
2022/06/24 03:55:06;;;;;;;13.35;11.27;;;16.00;99.90;;;;;;4934660;29;20127;-68
2022/06/24 03:57:33;;;;;;;17.80;11.98;;;16.00;99.90;;;;;;4948689;28;20043;-68
2022/06/24 04:00:00;;;;;;;12.75;11.55;;;16.00;99.90;;;;;;4946786;28;20450;-66
2022/06/24 04:02:37;;;;;;;11.35;10.23;;;16.10;99.90;;;;;;4960453;28;20098;-66
2022/06/24 04:05:12;;;;;;;13.25;12.05;;;16.10;99.90;;;;;;4968072;28;20546;-68
2022/06/24 04:07:39;;;;;;;12.65;11.35;;;16.10;99.90;;;;;;4963934;28;20384;-66
2022/06/24 04:10:07;;;;;;;11.93;10.05;;;16.20;99.90;;;;;;4966439;28;20161;-66
2022/06/24 04:12:34;;;;;;;10.23;9.38;;;16.20;99.90;;;;;;4968070;28;20138;-66
2022/06/24 04:15:13;;;;;;;11.52;10.27;;;16.30;99.90;;;;;;4966994;28;20039;-66
2022/06/24 04:17:42;;;;;;;11.68;10.27;;;16.30;99.90;;;;;;4966284;28;20480;-66
2022/06/24 04:20:09;;;;;;;11.93;10.52;;;16.30;99.90;;;;;;4964534;28;20070;-66
2022/06/24 04:22:37;;;;;;;13.02;10.30;;;16.40;99.90;;;;;;4967674;28;20050;-69
2022/06/24 04:25:04;;;;;;;10.45;8.38;;;16.40;99.90;;;;;;4967183;28;20038;-66
2022/06/24 04:27:31;;;;;;;13.00;10.48;;;16.40;99.90;;;;;;4965630;28;20457;-70
2022/06/24 04:30:06;;;;;;;10.95;9.82;;;16.50;99.90;;;;;;4965699;28;20059;-66
2022/06/24 04:32:33;;;;;;;10.65;9.60;;;16.50;99.90;;;;;;4968780;28;20121;-68
2022/06/24 04:35:02;;;;;;;12.60;10.45;;;16.60;99.90;;;;;;4964756;28;20047;-67
2022/06/24 04:37:29;;;;;;;11.68;9.32;;;16.60;99.90;;;;;;4962065;28;20466;-66
2022/06/24 04:39:58;;;;;;;10.93;9.10;;;16.70;99.90;;;;;;4965495;28;20051;-66
2022/06/24 04:42:25;;;;;;;9.70;8.35;;;16.80;99.90;;;;;;4966325;28;20046;-68
2022/06/24 04:44:52;;;;;;;10.98;7.72;;;16.80;99.90;;;;;;4965014;28;20055;-67
2022/06/24 04:47:20;;;;;;;10.60;9.43;;;16.80;99.90;;;;;;4968670;28;20061;-68
2022/06/24 04:49:47;;;;;;;11.07;8.20;;;16.90;99.90;;;;;;4966010;28;20567;-67
2022/06/24 04:52:15;;;;;;;15.95;9.65;;;17.00;99.90;;;;;;4971480;28;20402;-66
2022/06/24 04:54:43;;;;;;;8.75;7.50;;;17.00;99.90;;;;;;4970486;28;20051;-66
2022/06/24 04:57:11;;;;;;;8.85;7.95;;;17.10;99.90;;;;;;4971662;28;20540;-69
2022/06/24 04:59:38;;;;;;;11.40;8.55;;;17.10;99.90;;;;;;4970212;28;20083;-66
2022/06/24 05:02:05;;;;;;;8.52;7.70;;;17.20;99.90;;;;;;4964717;28;20051;-66
2022/06/24 05:04:37;;;;;;;8.80;6.50;;;17.20;99.90;;;;;;4970505;28;20413;-66
2022/06/24 05:07:04;;;;;;;;;;;17.30;99.90;;;;;;4971202;28;20054;-68
2022/06/24 05:09:31;;;;;;;9.45;6.85;;;17.30;99.90;;;;;;4971391;28;19985;-69
2022/06/24 05:11:59;;;;;;;8.10;6.07;;;17.30;99.90;;;;;;4968797;28;20764;-68
2022/06/24 05:14:26;;;;;;;7.57;6.90;;;17.40;99.90;;;;;;4971508;28;20197;-66
2022/06/24 05:16:53;;;;;;;8.05;6.43;;;17.40;99.90;;;;;;4971075;28;20058;-71
2022/06/24 05:19:20;;;;;;;8.70;7.00;;;17.50;99.90;;;;;;4971512;28;20073;-66
2022/06/24 05:21:47;;;;;;;7.05;5.95;;;17.60;99.90;;;;;;4969457;28;20047;-67
2022/06/24 05:24:15;;;;;;;5.70;5.20;;;17.60;99.90;;;;;;4969609;28;20118;-68
2022/06/24 05:26:43;;;;;;;6.80;5.43;;;17.60;99.90;;;;;;4970237;28;20058;-72
2022/06/24 05:29:11;;;;;;;7.65;6.82;;;17.70;99.90;;;;;;4964464;28;20070;-66
2022/06/24 05:31:38;;;;;;;6.43;5.68;;;17.80;99.90;;;;;;4967459;28;20114;-69
2022/06/24 05:34:08;;;;;;;6.65;6.05;;;17.80;99.90;;;;;;4970341;28;20071;-70
2022/06/24 05:36:36;;;;;;;9.25;5.95;;;17.80;99.90;;;;;;4970464;28;20039;-66
2022/06/24 05:39:05;;;;;;;5.57;5.07;;;17.90;99.90;;;;;;4971037;28;20066;-69
2022/06/24 05:41:33;;;;;;;6.05;5.55;;;18.00;99.90;;;;;;4968670;28;20378;-66
2022/06/24 05:44:00;;;;;;;6.25;5.55;;;18.00;99.90;;;;;;4969011;28;20381;-68
2022/06/24 05:46:28;;;;;;;8.82;5.18;;;18.10;99.90;;;;;;4968217;28;20469;-66
2022/06/24 05:48:58;;;;;;;5.38;4.95;;;18.20;99.90;;;;;;4970890;28;20082;-70
2022/06/24 05:51:25;;;;;;;;;;;18.30;99.90;;;;;;4969159;28;20050;-66
2022/06/24 05:56:38;;;;;;;5.85;4.95;;;18.40;99.90;;;;;;4969495;28;20055;-68
2022/06/24 05:59:13;;;;;;;5.85;5.35;;;18.50;99.90;;;;;;4963805;28;20062;-67
2022/06/24 06:01:40;;;;;;;6.50;4.68;;;18.60;99.90;;;;;;4969663;28;20122;-66
2022/06/24 06:04:08;;;;;;;4.72;3.65;;;18.70;99.90;;;;;;4968529;28;20043;-68
2022/06/24 06:06:35;;;;;;;5.30;4.50;;;18.80;99.90;;;;;;4966255;28;20050;-70
2022/06/24 06:09:02;;;;;;;4.63;4.22;;;18.80;99.90;;;;;;4978552;28;20481;-66
2022/06/24 06:11:29;;;;;;;4.63;4.22;;;19.00;99.90;;;;;;4969119;28;20101;-71
2022/06/24 06:13:56;;;;;;;5.57;4.80;;;19.00;99.90;;;;;;4968696;28;20047;-66
2022/06/24 06:16:24;;;;;;;4.57;4.18;;;19.10;99.90;;;;;;4968133;28;20407;-66
2022/06/24 06:18:51;;;;;;;5.47;5.03;;;19.10;99.90;;;;;;4966817;28;20061;-71
2022/06/24 06:21:18;;;;;;;4.43;4.07;;;19.20;99.90;;;;;;4969043;28;20114;-66
2022/06/24 06:23:45;;;;;;;4.07;3.67;;;19.30;99.90;;;;;;4967878;28;20081;-69
2022/06/24 06:26:12;;;;;;;3.72;3.47;;;19.40;99.90;;;;;;4969505;28;20099;-71
2022/06/24 06:28:41;;;;;;;3.40;3.00;;;19.50;99.90;;;;;;4967331;28;20074;-66
2022/06/24 06:31:09;;;;;;;3.40;3.10;;;19.60;99.90;;;;;;4969415;28;20066;-68
2022/06/24 06:33:37;;;;;;;5.50;3.92;;;19.70;99.90;;;;;;4964651;28;20047;-75
2022/06/24 06:36:05;;;;;;;5.45;4.97;;;19.70;99.90;;;;;;4967761;28;20058;-67
2022/06/24 06:38:33;;;;;;;4.28;3.85;;;19.70;99.90;;;;;;4969103;28;20066;-66
2022/06/24 06:41:00;;;;;;;9.48;4.20;;;19.80;99.90;;;;;;4969325;28;20384;-73
2022/06/24 06:43:27;;;;;;;6.07;4.30;;;19.90;99.90;;;;;;4968118;28;20051;-67
2022/06/24 06:45:55;;;;;;;3.72;3.42;;;20.00;99.90;;;;;;4967927;28;20847;-66
2022/06/24 06:48:23;;;;;;;5.57;3.63;;;20.10;99.90;;;;;;4969315;28;20094;-69
2022/06/24 06:50:57;;;;;;;3.22;3.03;;;20.20;99.90;;;;;;4964012;28;20043;-66
2022/06/24 06:53:25;;;;;;;3.97;2.90;;;20.20;99.90;;;;;;4966884;28;20100;-66
2022/06/24 06:55:53;;;;;;;4.38;3.45;;;20.30;99.90;;;;;;4960091;28;20142;-67
2022/06/24 06:58:24;;;;;;;4.65;3.45;;;20.40;99.90;;;;;;4969739;28;20135;-67
2022/06/24 07:00:52;;;;;;;3.25;3.05;;;20.40;99.90;;;;;;4962054;28;20062;-72
2022/06/24 07:03:19;;;;;;;2.80;2.60;;;20.50;99.90;;;;;;4959716;28;20493;-67
2022/06/24 07:05:46;;;;;;;3.10;2.90;;;20.50;99.90;;;;;;4963668;28;20054;-69
2022/06/24 07:08:14;;;;;;;4.95;3.53;;;20.50;99.90;;;;;;4968869;28;20153;-68
2022/06/24 07:10:42;;;;;;;3.55;3.25;;;20.60;99.90;;;;;;4966627;28;20074;-70
2022/06/24 07:13:09;;;;;;;3.35;3.10;;;20.60;99.90;;;;;;4964569;28;20389;-66
2022/06/24 07:15:36;;;;;;;3.38;3.08;;;20.70;99.90;;;;;;4967058;28;20074;-70
2022/06/24 07:18:04;;;;;;;4.32;3.17;;;20.70;99.90;;;;;;4967654;28;20081;-67
2022/06/24 07:20:32;;;;;;;3.55;3.25;;;20.80;99.90;;;;;;4955208;28;20039;-66
2022/06/24 07:22:59;;;;;;;4.25;3.22;;;20.80;99.90;;;;;;4951364;28;20043;-66
2022/06/24 07:25:26;;;;;;;3.22;3.03;;;20.90;99.90;;;;;;4967817;28;20572;-71
2022/06/24 07:27:53;;;;;;;2.92;2.72;;;20.90;99.90;;;;;;4966985;28;20046;-67
2022/06/24 07:30:20;;;;;;;3.92;3.60;;;21.10;99.90;;;;;;4950617;28;20059;-67
2022/06/24 07:32:47;;;;;;;5.07;3.83;;;21.10;99.90;;;;;;4968841;28;20134;-67
2022/06/24 07:35:15;;;;;;;3.30;3.08;;;21.20;99.90;;;;;;4969697;28;20038;-68
2022/06/24 07:38:02;;;;;;;4.82;2.88;;;21.30;99.90;;;;;;4964846;28;20046;-68
2022/06/24 07:40:29;;;;;;;5.03;3.15;;;21.40;99.90;;;;;;4964593;28;20051;-67
2022/06/24 07:42:56;;;;;;;3.47;3.17;;;21.50;99.90;;;;;;4957902;28;20425;-70
2022/06/24 07:45:22;;;;;;;3.20;2.92;;;21.60;99.90;;;;;;4966842;28;20698;-67
2022/06/24 07:47:49;;;;;;;2.83;2.63;;;21.60;99.90;;;;;;4967228;28;20157;-67
2022/06/24 07:50:16;;;;;;;4.40;2.97;;;21.70;99.90;;;;;;4966160;28;20076;-67
2022/06/24 07:52:44;;;;;;;6.65;3.47;;;21.70;99.90;;;;;;4968162;28;20126;-67
2022/06/24 07:57:56;;;;;;;2.92;2.72;;;21.80;99.90;;;;;;4963430;28;20523;-70
2022/06/24 08:00:23;;;;;;;3.17;2.65;;;21.80;99.90;;;;;;4966564;28;20098;-67
2022/06/24 08:02:50;;;;;;;3.60;3.30;;;21.90;99.90;;;;;;4965358;28;20465;-67
2022/06/24 08:05:17;;;;;;;3.30;2.33;;;22.00;99.90;;;;;;4968273;28;20049;-67
2022/06/24 08:07:44;;;;;;;2.83;2.63;;;22.00;99.90;;;;;;4964838;28;20055;-68
2022/06/24 08:10:12;;;;;;;2.83;1.95;;;22.10;99.90;;;;;;4965930;28;20062;-67
2022/06/24 08:12:39;;;;;;;2.38;2.10;;;22.20;99.90;;;;;;4966073;28;20477;-67
2022/06/24 08:15:06;;;;;;;2.65;2.45;;;22.30;99.90;;;;;;4967533;28;20073;-67
2022/06/24 08:17:33;;;;;;;2.33;2.13;;;22.40;99.90;;;;;;4967284;28;20051;-68
2022/06/24 08:20:00;;;;;;;2.42;2.22;;;22.40;99.90;;;;;;4964633;28;20091;-70
2022/06/24 08:22:27;;;;;;;2.83;2.33;;;22.50;99.90;;;;;;4967072;28;20044;-67
2022/06/24 08:24:54;;;;;;;2.63;2.42;;;22.50;99.90;;;;;;4967502;28;20473;-68
2022/06/24 08:27:41;;;;;;;2.38;2.17;;;22.50;99.90;;;;;;4968381;28;20058;-67
2022/06/24 08:30:09;;;;;;;2.50;2.30;;;22.60;99.90;;;;;;4968162;28;20673;-69
2022/06/24 08:32:36;;;;;;;2.25;1.98;;;22.70;99.90;;;;;;4969543;28;20051;-67
2022/06/24 08:35:03;;;;;;;2.72;2.33;;;22.80;99.90;;;;;;4969937;28;20201;-67
2022/06/24 08:37:50;;;;;;;2.35;2.22;;;22.90;99.90;;;;;;4970131;28;20047;-68
2022/06/24 08:40:19;;;;;;;2.33;2.13;;;23.10;99.90;;;;;;4971411;28;20046;-67
2022/06/24 08:42:52;;;;;;;1.90;1.80;;;23.10;99.90;;;;;;4971672;28;20773;-67
2022/06/24 08:45:20;;;;;;;2.95;2.65;;;23.30;99.90;;;;;;4967767;28;20404;-66
2022/06/24 08:47:48;;;;;;;2.30;2.20;;;23.30;99.90;;;;;;4969442;28;20054;-66
2022/06/24 08:50:16;;;;;;;2.35;2.15;;;23.50;99.90;;;;;;4971888;28;20054;-67
2022/06/24 08:52:49;;;;;;;1.92;1.83;;;23.60;99.90;;;;;;4961788;28;20038;-67
2022/06/24 08:55:22;;;;;;;2.00;1.83;;;23.80;99.90;;;;;;4971081;28;20043;-67
2022/06/24 08:57:49;;;;;;;2.85;1.80;;;23.90;99.90;;;;;;4967385;28;20133;-68
2022/06/24 09:00:18;;;;;;;2.22;2.03;;;23.90;99.90;;;;;;4971781;28;20042;-67
2022/06/24 09:02:46;;;;;;;2.45;2.15;;;24.00;99.90;;;;;;4970568;28;20066;-67
2022/06/24 09:05:15;;;;;;;1.88;1.77;;;24.10;99.90;;;;;;4971819;28;20402;-68
2022/06/24 09:07:42;;;;;;;2.05;1.88;;;24.20;99.90;;;;;;4971442;28;20107;-67
2022/06/24 09:10:12;;;;;;;1.52;1.05;;;24.10;99.90;;;;;;4970247;28;20051;-66
2022/06/24 09:12:48;;;;;;;1.80;1.70;;;23.60;99.90;;;;;;4970465;28;20089;-68
2022/06/24 09:15:16;;;;;;;2.50;1.38;;;23.20;99.90;;;;;;4971079;28;20061;-67
2022/06/24 09:17:44;;;;;;;1.27;1.17;;;23.10;99.90;;;;;;4969079;28;20103;-72
2022/06/24 09:20:13;;;;;;;2.70;2.33;;;23.00;99.90;;;;;;4971430;28;20051;-67
2022/06/24 09:23:10;;;;;;;2.55;2.35;;;22.90;99.90;;;;;;4970954;28;20553;-69
2022/06/24 09:25:50;;;;;;;1.85;1.75;;;23.00;99.90;;;;;;4968155;28;20089;-69
2022/06/24 09:28:25;;;;;;;1.55;1.45;;;23.00;99.90;;;;;;4969955;28;20051;-67
2022/06/24 09:31:07;;;;;;;1.60;1.50;;;22.60;99.90;;;;;;4968725;28;20505;-67
2022/06/24 09:33:40;;;;;;;2.67;2.28;;;22.20;99.90;;;;;;4966681;28;20465;-67
2022/06/24 09:36:10;;;;;;;3.88;1.60;;;22.00;99.90;;;;;;4968965;28;20102;-66
2022/06/24 09:38:51;;;;;;;2.08;1.85;;;21.80;99.90;;;;;;4970341;28;20047;-68
2022/06/24 09:41:19;;;;;;;1.60;1.50;;;21.60;99.90;;;;;;4965865;28;20066;-71
2022/06/24 09:43:46;;;;;;;2.15;1.98;;;21.50;99.90;;;;;;4968913;28;20055;-67
2022/06/24 09:46:18;;;;;;;3.00;2.20;;;21.50;99.90;;;;;;4969962;28;20133;-67
2022/06/24 09:48:46;;;;;;;3.00;2.30;;;21.60;99.90;;;;;;4969528;28;20086;-67
2022/06/24 09:51:15;;;;;;;1.98;1.77;;;21.50;99.90;;;;;;4970014;28;20050;-67
2022/06/24 09:53:45;;;;;;;2.70;2.05;;;21.20;99.90;;;;;;4968443;28;20502;-68
2022/06/24 09:56:13;;;;;;;3.50;2.08;;;21.30;99.90;;;;;;4970246;28;20051;-67
2022/06/24 10:00:40;;;;;;;8.02;3.97;;;21.40;99.90;;;;;;4969652;28;20386;-67
2022/06/24 10:01:35;;;;;;;3.13;1.90;;;21.40;99.90;;;;;;4969423;28;20612;-67
2022/06/24 10:04:14;;;;;;;3.22;1.90;;;21.50;99.90;;;;;;4968202;28;20154;-67
2022/06/24 10:06:44;;;;;;;2.30;2.10;;;21.40;99.90;;;;;;4965768;28;20513;-67
2022/06/24 10:09:12;;;;;;;2.53;2.33;;;21.50;99.90;;;;;;4963225;28;20482;-68
2022/06/24 10:11:42;;;;;;;5.28;2.17;;;21.40;99.90;;;;;;4970080;28;20138;-67
2022/06/24 10:14:12;;;;;;;2.05;1.88;;;21.40;99.90;;;;;;4968420;28;20058;-69
2022/06/24 10:16:41;;;;;;;2.63;1.77;;;21.30;99.90;;;;;;4969728;28;20163;-67
2022/06/24 10:19:10;;;;;;;2.53;2.10;;;21.30;99.90;;;;;;4970642;28;20074;-68
2022/06/24 10:21:48;;;;;;;2.47;1.80;;;21.30;99.90;;;;;;4960834;28;20402;-75
2022/06/24 10:24:16;;;;;;;2.42;2.22;;;21.30;99.90;;;;;;4969762;28;20507;-67
2022/06/24 10:26:48;;;;;;;2.28;2.08;;;21.40;99.90;;;;;;4969471;28;20043;-70
2022/06/24 10:29:20;;;;;;;2.15;1.95;;;21.50;99.90;;;;;;4966797;28;20133;-67
2022/06/24 10:34:29;;;;;;;3.78;2.08;;;21.50;99.90;;;;;;4969808;28;20065;-67
2022/06/24 10:36:58;;;;;;;1.83;1.30;;;21.70;99.90;;;;;;4967623;28;20080;-66
2022/06/24 10:39:27;;;;;;;1.65;1.52;;;21.80;99.90;;;;;;4970142;28;20079;-67
2022/06/24 10:42:06;;;;;;;2.50;1.42;;;21.90;99.90;;;;;;4965422;28;20130;-67
2022/06/24 10:44:35;;;;;;;3.70;1.67;;;22.00;99.90;;;;;;4964057;28;20412;-70
2022/06/24 10:47:04;;;;;;;2.38;1.52;;;21.90;99.90;;;;;;4970497;28;20116;-66
2022/06/24 10:50:12;;;;;;;1.88;1.45;;;21.60;99.90;;;;;;4968216;28;20114;-66
2022/06/24 10:52:51;;;;;;;2.08;1.60;;;21.40;99.90;;;;;;4967775;28;20106;-68
2022/06/24 10:55:18;;;;;;;1.65;1.55;;;21.20;99.90;;;;;;4966623;28;20053;-69
2022/06/24 10:57:59;;;;;;;1.45;1.35;;;21.20;99.90;;;;;;4967151;28;20099;-69
2022/06/24 11:00:29;;;;;;;3.60;1.35;;;21.20;99.90;;;;;;4968526;28;20068;-68
2022/06/24 11:03:05;;;;;;;5.22;1.60;;;21.20;99.90;;;;;;4953764;28;20138;-67
2022/06/24 11:05:37;;;;;;;1.10;1.10;;;21.40;99.90;;;;;;4951529;28;20055;-69
2022/06/24 11:08:16;;;;;;;1.58;1.23;;;21.40;99.90;;;;;;4948189;28;20103;-68
2022/06/24 11:10:44;;;;;;;1.85;1.33;;;21.40;99.90;;;;;;4951365;28;20630;-67
2022/06/24 11:13:11;;;;;;;1.50;1.40;;;21.40;99.90;;;;;;4950191;28;20187;-67
2022/06/24 11:15:39;;;;;;;1.40;1.30;;;21.40;99.90;;;;;;4949274;28;20047;-69
2022/06/24 11:18:09;;;;;;;1.45;1.17;;;21.60;99.90;;;;;;4947828;28;20043;-66
2022/06/24 11:20:46;;;;;;;1.30;1.27;;;21.80;99.90;;;;;;4955295;28;20115;-67
2022/06/24 11:23:17;;;;;;;1.48;1.23;;;21.90;99.90;;;;;;4944630;28;20055;-69
2022/06/24 11:25:58;;;;;;;2.00;1.63;;;22.00;99.90;;;;;;4946437;28;20745;-70
2022/06/24 11:28:34;;;;;;;1.30;0.90;;;22.00;99.90;;;;;;4957084;28;20046;-69
2022/06/24 11:31:19;;;;;;;1.63;1.10;;;22.10;99.90;;;;;;4948645;28;20051;-67
2022/06/24 11:33:51;;;;;;;1.20;1.10;;;22.20;99.90;;;;;;4946241;28;20058;-68
2022/06/24 11:36:23;;;;;;;1.38;1.02;;;21.90;99.90;;;;;;4949724;28;20040;-67
2022/06/24 11:38:54;;;;;;;3.70;0.95;;;21.90;99.90;;;;;;4950322;28;20561;-67
2022/06/24 11:41:22;;;;;;;2.95;0.95;;;22.10;99.90;;;;;;4949326;28;20075;-67
2022/06/24 11:44:09;;;;;;;1.98;1.38;;;22.20;99.90;;;;;;4947682;28;20092;-67
2022/06/24 11:46:36;;;;;;;0.80;0.80;;;22.30;99.90;;;;;;4955082;28;20077;-69
2022/06/24 11:49:11;;;;;;;2.15;1.10;;;22.50;99.90;;;;;;4951697;28;20420;-70
2022/06/24 11:51:40;;;;;;;1.05;0.82;;;22.80;99.90;;;;;;4947469;28;20047;-67
2022/06/24 11:54:08;;;;;;;1.23;1.02;;;22.70;99.90;;;;;;4942852;28;20082;-67
2022/06/24 11:56:38;;;;;;;0.88;0.88;;;22.70;99.90;;;;;;4949360;28;20051;-68
2022/06/24 11:59:07;;;;;;;1.73;1.20;;;22.70;99.90;;;;;;4952881;28;20055;-68
2022/06/24 12:01:35;;;;;;;1.73;1.40;;;22.70;99.90;;;;;;4954444;28;20088;-70
2022/06/24 12:04:06;;;;;;;1.52;1.35;;;22.90;99.90;;;;;;4966187;28;20114;-67
2022/06/24 12:06:36;;;;;;;0.93;0.93;;;23.20;99.90;;;;;;4967252;28;20062;-67
2022/06/24 12:09:04;;;;;;;1.65;1.10;;;23.30;99.90;;;;;;4967146;28;20110;-73
2022/06/24 12:11:37;;;;;;;1.95;1.30;;;23.40;99.90;;;;;;4966443;28;20102;-67
2022/06/24 12:14:08;;;;;;;1.45;1.13;;;23.60;99.90;;;;;;4965801;28;20050;-69
2022/06/24 12:17:06;;;;;;;1.27;1.10;;;23.60;99.90;;;;;;4958710;28;20051;-67
2022/06/24 12:19:54;;;;;;;1.13;1.02;;;23.50;99.90;;;;;;4964423;28;20050;-67
2022/06/24 12:22:21;;;;;;;0.93;0.82;;;23.30;99.90;;;;;;4965719;28;20054;-67
2022/06/24 12:25:05;;;;;;;;;;;23.50;99.90;;;;;;4957619;28;20050;-67
2022/06/24 12:27:36;;;;;;;3.13;1.58;;;23.20;99.90;;;;;;4966876;28;20288;-67
2022/06/24 12:30:05;;;;;;;1.48;1.38;;;23.00;99.90;;;;;;4964741;28;20055;-68
2022/06/24 12:32:56;;;;;;;1.90;1.80;;;23.00;99.90;;;;;;4967117;28;20051;-67
2022/06/24 12:35:35;;;;;;;1.20;1.10;;;23.20;99.90;;;;;;4966516;28;20070;-70
2022/06/24 12:38:11;;;;;;;1.30;1.15;;;23.10;99.90;;;;;;4959531;28;20074;-67
2022/06/24 12:40:39;;;;;;;2.05;1.85;;;23.10;99.90;;;;;;4965667;28;20074;-67
2022/06/24 12:43:14;;;;;;;1.30;1.20;;;23.00;99.90;;;;;;4968652;28;20059;-68
2022/06/24 12:45:43;;;;;;;2.55;1.27;;;22.90;99.90;;;;;;4967873;28;20063;-67
2022/06/24 12:50:56;;;;;;;2.15;1.95;;;22.40;99.90;;;;;;4963808;28;20055;-68
2022/06/24 12:53:24;;;;;;;1.58;1.48;;;22.40;99.90;;;;;;4965683;28;20149;-69
2022/06/24 12:55:52;;;;;;;2.22;1.48;;;22.70;99.90;;;;;;4959864;28;20138;-67
2022/06/24 12:58:19;;;;;;;1.63;1.50;;;22.90;99.90;;;;;;4967581;28;20098;-68
2022/06/24 13:00:47;;;;;;;1.77;1.17;;;22.80;99.90;;;;;;4966049;28;20145;-69
2022/06/24 13:03:20;;;;;;;2.35;1.27;;;22.70;99.90;;;;;;4951414;28;20111;-67
2022/06/24 13:05:50;;;;;;;2.05;1.45;;;22.90;99.90;;;;;;4944917;29;20051;-72
2022/06/24 13:08:17;;;;;;;1.20;1.10;;;22.90;99.90;;;;;;4945615;28;20066;-67
2022/06/24 13:10:44;;;;;;;1.38;1.27;;;22.50;99.90;;;;;;4946315;28;20078;-68